createdAt,value
2018-11-07T00:01:58.616Z,11.70
2018-11-07T00:04:27.300Z,11.60
2018-11-07T00:06:56.046Z,11.60
2018-11-07T00:09:24.609Z,11.60
2018-11-07T00:11:53.159Z,11.60
2018-11-07T00:14:21.771Z,11.50
2018-11-07T00:16:50.377Z,11.60
2018-11-07T00:19:19.002Z,11.50
2018-11-07T00:21:47.554Z,11.50
2018-11-07T00:24:16.147Z,11.60
2018-11-07T00:26:44.789Z,11.50
2018-11-07T00:29:13.473Z,11.50
2018-11-07T00:31:42.232Z,11.50
2018-11-07T00:34:11.247Z,11.60
2018-11-07T00:36:40.187Z,11.60
2018-11-07T00:39:09.666Z,11.60
2018-11-07T00:41:38.568Z,11.60
2018-11-07T00:44:07.490Z,11.60
2018-11-07T00:46:36.217Z,11.60
2018-11-07T00:49:05.608Z,11.60
2018-11-07T00:51:34.309Z,11.60
2018-11-07T00:54:02.923Z,11.70
2018-11-07T00:56:31.498Z,11.70
2018-11-07T00:59:00.173Z,11.70
2018-11-07T01:01:29.019Z,11.70
2018-11-07T01:03:57.838Z,11.70
2018-11-07T01:06:26.505Z,11.70
2018-11-07T01:08:55.112Z,11.70
2018-11-07T01:11:23.712Z,11.70
2018-11-07T01:13:52.282Z,11.70
2018-11-07T01:16:20.914Z,11.70
2018-11-07T01:18:49.494Z,11.70
2018-11-07T01:21:18.099Z,11.70
2018-11-07T01:23:46.693Z,11.70
2018-11-07T01:26:15.288Z,11.70
2018-11-07T01:28:43.885Z,11.60
2018-11-07T01:31:12.808Z,11.60
2018-11-07T01:33:41.720Z,11.60
2018-11-07T01:36:10.573Z,11.60
2018-11-07T01:38:39.584Z,11.50
2018-11-07T01:41:08.499Z,11.50
2018-11-07T01:43:37.373Z,11.50
2018-11-07T01:46:06.290Z,11.40
2018-11-07T01:48:35.095Z,11.40
2018-11-07T01:51:03.757Z,11.40
2018-11-07T01:53:32.366Z,11.40
2018-11-07T01:56:00.964Z,11.40
2018-11-07T01:58:29.762Z,11.30
2018-11-07T02:00:58.579Z,11.20
2018-11-07T02:03:27.330Z,11.20
2018-11-07T02:05:56.090Z,11.20
2018-11-07T02:08:28.854Z,11.10
2018-11-07T02:10:57.645Z,11.10
2018-11-07T02:13:26.370Z,11.00
2018-11-07T02:15:55.037Z,11.00
2018-11-07T02:18:23.810Z,11.00
2018-11-07T02:20:52.434Z,11.00
2018-11-07T02:23:21.053Z,10.90
2018-11-07T02:25:49.714Z,10.90
2018-11-07T02:28:18.508Z,10.80
2018-11-07T02:30:47.114Z,10.70
2018-11-07T02:33:15.718Z,10.70
2018-11-07T02:35:44.495Z,10.60
2018-11-07T02:38:13.175Z,10.60
2018-11-07T02:40:42.055Z,10.60
2018-11-07T02:43:10.844Z,10.60
2018-11-07T02:45:39.809Z,10.50
2018-11-07T02:48:08.560Z,10.50
2018-11-07T02:50:37.609Z,10.40
2018-11-07T02:53:06.634Z,10.40
2018-11-07T02:55:35.536Z,10.40
2018-11-07T02:58:04.302Z,10.30
2018-11-07T03:00:32.890Z,10.40
2018-11-07T03:03:01.534Z,10.40
2018-11-07T03:05:30.190Z,10.40
2018-11-07T03:07:58.902Z,10.40
2018-11-07T03:10:27.592Z,10.40
2018-11-07T03:12:56.232Z,10.40
2018-11-07T03:15:24.810Z,10.30
2018-11-07T03:17:53.406Z,10.30
2018-11-07T03:20:21.978Z,10.30
2018-11-07T03:22:50.539Z,10.30
2018-11-07T03:25:19.161Z,10.30
2018-11-07T03:27:47.745Z,10.20
2018-11-07T03:30:16.356Z,10.20
2018-11-07T03:32:45.060Z,10.10
2018-11-07T03:35:18.930Z,10.20
2018-11-07T03:37:47.513Z,10.10
2018-11-07T03:40:16.122Z,10.10
2018-11-07T03:42:44.799Z,10.10
2018-11-07T03:45:13.703Z,10.20
2018-11-07T03:47:42.539Z,10.20
2018-11-07T03:50:11.363Z,10.20
2018-11-07T03:52:40.602Z,10.20
2018-11-07T03:55:09.085Z,10.20
2018-11-07T03:57:38.127Z,10.20
2018-11-07T04:00:08.544Z,10.20
2018-11-07T04:02:37.278Z,10.20
2018-11-07T04:05:07.926Z,10.10
2018-11-07T04:07:36.859Z,10.10
2018-11-07T04:10:06.061Z,10.10
2018-11-07T04:12:34.763Z,10.10
2018-11-07T04:15:03.369Z,10.10
2018-11-07T04:17:31.963Z,10.00
2018-11-07T04:20:00.755Z,10.10
2018-11-07T04:22:29.490Z,10.10
2018-11-07T04:24:58.248Z,10.00
2018-11-07T04:27:27.053Z,10.00
2018-11-07T04:29:55.742Z,9.90
2018-11-07T04:32:24.346Z,10.00
2018-11-07T04:34:53.010Z,10.00
2018-11-07T04:37:21.570Z,10.00
2018-11-07T04:39:50.169Z,10.00
2018-11-07T04:42:18.732Z,9.90
2018-11-07T04:44:47.299Z,10.00
2018-11-07T04:47:15.886Z,10.00
2018-11-07T04:49:44.543Z,10.00
2018-11-07T04:52:13.281Z,10.00
2018-11-07T04:54:42.043Z,10.00
2018-11-07T04:57:10.866Z,10.00
2018-11-07T04:59:39.801Z,9.90
2018-11-07T05:02:08.741Z,9.90
2018-11-07T05:04:37.738Z,9.90
2018-11-07T05:07:06.721Z,9.90
2018-11-07T05:09:35.458Z,9.90
2018-11-07T05:12:04.219Z,9.90
2018-11-07T05:14:32.814Z,9.80
2018-11-07T05:17:01.550Z,9.80
2018-11-07T05:19:30.211Z,9.80
2018-11-07T05:21:58.835Z,9.80
2018-11-07T05:24:27.663Z,9.80
2018-11-07T05:26:56.532Z,9.90
2018-11-07T05:29:25.127Z,9.90
2018-11-07T05:31:53.762Z,9.90
2018-11-07T05:34:22.323Z,9.90
2018-11-07T05:36:51.010Z,9.80
2018-11-07T05:39:19.577Z,9.80
2018-11-07T05:41:48.174Z,9.90
2018-11-07T05:44:16.769Z,9.90
2018-11-07T05:46:45.462Z,9.90
2018-11-07T05:49:14.983Z,9.80
2018-11-07T05:51:43.651Z,9.80
2018-11-07T05:54:12.475Z,9.80
2018-11-07T05:56:41.322Z,9.70
2018-11-07T05:59:10.133Z,9.70
2018-11-07T06:01:39.114Z,9.80
2018-11-07T06:04:08.456Z,9.80
2018-11-07T06:06:37.514Z,9.80
2018-11-07T06:09:07.934Z,9.80
2018-11-07T06:11:37.253Z,9.80
2018-11-07T06:14:06.496Z,9.80
2018-11-07T06:16:37.393Z,9.80
2018-11-07T06:19:06.290Z,9.80
2018-11-07T06:21:35.174Z,9.80
2018-11-07T06:24:03.858Z,9.80
2018-11-07T06:26:32.522Z,9.80
2018-11-07T06:29:01.114Z,9.80
2018-11-07T06:31:29.821Z,9.80
2018-11-07T06:33:58.697Z,9.90
2018-11-07T06:36:27.441Z,9.90
2018-11-07T06:38:56.070Z,9.90
2018-11-07T06:41:24.687Z,9.90
2018-11-07T06:43:53.262Z,9.90
2018-11-07T06:46:21.854Z,9.90
2018-11-07T06:48:50.410Z,9.90
2018-11-07T06:51:18.985Z,9.90
2018-11-07T06:53:47.559Z,9.90
2018-11-07T06:56:16.137Z,9.90
2018-11-07T06:58:44.771Z,9.80
2018-11-07T07:01:13.519Z,9.80
2018-11-07T07:03:42.357Z,9.90
2018-11-07T07:06:11.203Z,9.90
2018-11-07T07:08:40.017Z,9.90
2018-11-07T07:11:09.178Z,9.90
2018-11-07T07:13:38.235Z,10.00
2018-11-07T07:16:07.178Z,10.00
2018-11-07T07:18:36.038Z,10.10
2018-11-07T07:21:05.092Z,10.20
2018-11-07T07:23:33.747Z,10.30
2018-11-07T07:26:02.371Z,10.40
2018-11-07T07:28:31.034Z,10.60
2018-11-07T07:30:59.730Z,10.70
2018-11-07T07:33:28.594Z,10.80
2018-11-07T07:35:57.503Z,10.90
2018-11-07T07:38:26.203Z,11.10
2018-11-07T07:40:54.802Z,11.20
2018-11-07T07:43:23.382Z,11.30
2018-11-07T07:45:51.992Z,11.30
2018-11-07T07:48:20.558Z,11.40
2018-11-07T07:50:49.155Z,11.50
2018-11-07T07:53:17.794Z,11.60
2018-11-07T07:55:46.352Z,11.80
2018-11-07T07:58:15.027Z,11.90
2018-11-07T08:00:43.889Z,12.00
2018-11-07T08:03:12.671Z,12.10
2018-11-07T08:05:41.585Z,12.10
2018-11-07T08:08:10.504Z,12.30
2018-11-07T08:10:39.328Z,12.30
2018-11-07T08:13:08.243Z,12.40
2018-11-07T08:15:37.390Z,12.40
2018-11-07T08:18:06.932Z,12.40
2018-11-07T08:20:35.963Z,12.60
2018-11-07T08:23:04.872Z,12.50
2018-11-07T08:25:33.562Z,12.70
2018-11-07T08:28:03.400Z,12.80
2018-11-07T08:30:32.126Z,13.00
2018-11-07T08:33:00.762Z,13.10
2018-11-07T08:35:29.999Z,13.30
2018-11-07T08:37:58.578Z,13.30
2018-11-07T08:40:27.594Z,13.50
2018-11-07T08:42:56.309Z,13.60
2018-11-07T08:45:24.890Z,13.70
2018-11-07T08:47:53.506Z,13.90
2018-11-07T08:50:22.322Z,14.00
2018-11-07T08:52:51.002Z,14.10
2018-11-07T08:55:20.944Z,14.30
2018-11-07T08:57:49.604Z,14.40
2018-11-07T09:00:19.466Z,14.40
2018-11-07T09:02:48.143Z,14.50
2018-11-07T09:05:17.426Z,14.50
2018-11-07T09:07:51.397Z,14.70
2018-11-07T09:10:22.111Z,14.70
2018-11-07T09:12:50.703Z,14.70
2018-11-07T09:15:20.730Z,14.90
2018-11-07T09:17:49.328Z,14.70
2018-11-07T09:20:19.356Z,14.60
2018-11-07T09:22:47.920Z,14.80
2018-11-07T09:25:16.957Z,14.80
2018-11-07T09:27:46.268Z,14.90
2018-11-07T09:30:22.764Z,14.90
2018-11-07T09:32:51.376Z,15.00
2018-11-07T09:35:20.564Z,15.00
2018-11-07T09:37:49.166Z,15.20
2018-11-07T09:40:19.903Z,15.50
2018-11-07T09:42:49.030Z,15.70
2018-11-07T09:45:19.143Z,15.80
2018-11-07T09:47:48.165Z,15.90
2018-11-07T09:50:17.558Z,16.00
2018-11-07T09:52:46.306Z,16.10
2018-11-07T09:55:19.179Z,16.30
2018-11-07T09:57:47.811Z,16.40
2018-11-07T10:00:17.696Z,16.30
2018-11-07T10:02:46.578Z,16.60
2018-11-07T10:05:16.260Z,16.90
2018-11-07T10:07:44.992Z,17.00
2018-11-07T10:10:16.311Z,16.90
2018-11-07T10:12:45.472Z,16.40
2018-11-07T10:15:14.510Z,16.10
2018-11-07T10:17:43.416Z,16.10
2018-11-07T10:20:19.826Z,15.80
2018-11-07T10:22:48.874Z,15.50
2018-11-07T10:25:17.617Z,15.70
2018-11-07T10:27:46.526Z,16.10
2018-11-07T10:30:16.444Z,16.60
2018-11-07T10:32:46.044Z,16.90
2018-11-07T10:35:14.834Z,17.20
2018-11-07T10:37:43.715Z,17.20
2018-11-07T10:40:14.913Z,17.30
2018-11-07T10:42:44.000Z,17.60
2018-11-07T10:45:13.051Z,17.60
2018-11-07T10:47:42.692Z,17.90
2018-11-07T10:50:12.939Z,18.20
2018-11-07T10:52:42.700Z,18.40
2018-11-07T10:55:12.493Z,18.30
2018-11-07T10:57:41.358Z,18.10
2018-11-07T11:00:16.974Z,17.90
2018-11-07T11:02:52.662Z,17.70
2018-11-07T11:05:21.331Z,17.60
2018-11-07T11:07:49.861Z,17.40
2018-11-07T11:10:18.463Z,17.80
2018-11-07T11:12:47.060Z,18.20
2018-11-07T11:15:15.676Z,18.60
2018-11-07T11:17:44.386Z,18.80
2018-11-07T11:20:14.258Z,18.80
2018-11-07T11:22:43.068Z,19.10
2018-11-07T11:25:12.177Z,19.40
2018-11-07T11:27:41.073Z,19.70
2018-11-07T11:30:10.309Z,19.80
2018-11-07T11:32:39.721Z,19.80
2018-11-07T11:35:09.869Z,19.50
2018-11-07T11:37:38.764Z,19.80
2018-11-07T11:40:09.836Z,20.10
2018-11-07T11:42:39.045Z,19.90
2018-11-07T11:45:09.685Z,19.80
2018-11-07T11:47:38.742Z,20.10
2018-11-07T11:50:10.454Z,20.20
2018-11-07T11:52:39.557Z,20.50
2018-11-07T11:55:08.918Z,20.90
2018-11-07T11:57:37.795Z,20.40
2018-11-07T12:00:09.807Z,20.10
2018-11-07T12:02:38.718Z,20.10
2018-11-07T12:05:09.709Z,20.30
2018-11-07T12:07:39.035Z,20.40
2018-11-07T12:10:14.985Z,20.20
2018-11-07T12:12:44.982Z,20.40
2018-11-07T12:15:14.402Z,20.50
2018-11-07T12:17:43.145Z,20.90
2018-11-07T12:20:12.268Z,20.40
2018-11-07T12:22:41.333Z,20.70
2018-11-07T12:25:12.442Z,20.60
2018-11-07T12:27:41.725Z,20.10
2018-11-07T12:30:14.553Z,19.60
2018-11-07T12:32:44.330Z,19.20
2018-11-07T12:35:13.418Z,18.70
2018-11-07T12:37:42.695Z,18.60
2018-11-07T12:40:12.164Z,18.40
2018-11-07T12:42:41.062Z,18.60
2018-11-07T12:45:11.678Z,18.60
2018-11-07T12:47:40.804Z,18.60
2018-11-07T12:50:14.833Z,18.60
2018-11-07T12:52:44.361Z,18.50
2018-11-07T12:55:13.561Z,18.30
2018-11-07T12:57:42.644Z,18.20
2018-11-07T13:00:15.666Z,18.00
2018-11-07T13:02:44.362Z,17.90
2018-11-07T13:05:14.551Z,17.70
2018-11-07T13:07:44.146Z,17.60
2018-11-07T13:10:14.430Z,17.50
2018-11-07T13:12:44.285Z,17.50
2018-11-07T13:15:13.633Z,17.50
2018-11-07T13:17:42.636Z,17.40
2018-11-07T13:20:13.899Z,17.40
2018-11-07T13:22:43.586Z,17.30
2018-11-07T13:25:12.845Z,17.20
2018-11-07T13:27:41.655Z,17.10
2018-11-07T13:30:13.805Z,17.00
2018-11-07T13:32:42.705Z,17.00
2018-11-07T13:35:12.295Z,17.00
2018-11-07T13:37:42.045Z,16.80
2018-11-07T13:40:13.402Z,16.80
2018-11-07T13:42:42.251Z,16.80
2018-11-07T13:45:12.455Z,16.60
2018-11-07T13:47:42.269Z,16.50
2018-11-07T13:50:11.930Z,16.40
2018-11-07T13:52:40.681Z,16.20
2018-11-07T13:55:10.593Z,16.00
2018-11-07T13:57:40.018Z,16.00
2018-11-07T14:00:11.849Z,16.10
2018-11-07T14:02:41.021Z,15.80
2018-11-07T14:05:10.767Z,15.80
2018-11-07T14:07:40.006Z,15.70
2018-11-07T14:10:14.265Z,15.60
2018-11-07T14:12:43.038Z,15.50
2018-11-07T14:15:13.147Z,15.50
2018-11-07T14:17:42.457Z,15.40
2018-11-07T14:20:11.186Z,15.40
2018-11-07T14:22:40.569Z,15.40
2018-11-07T14:25:10.321Z,15.40
2018-11-07T14:27:39.452Z,15.40
2018-11-07T14:30:09.904Z,15.30
2018-11-07T14:32:42.824Z,15.30
2018-11-07T14:35:11.777Z,15.30
2018-11-07T14:37:40.570Z,15.20
2018-11-07T14:40:09.866Z,15.20
2018-11-07T14:42:39.388Z,15.20
2018-11-07T14:45:09.822Z,15.20
2018-11-07T14:47:39.099Z,15.20
2018-11-07T14:50:09.448Z,15.20
2018-11-07T14:52:38.677Z,15.20
2018-11-07T14:55:08.156Z,15.10
2018-11-07T14:57:37.311Z,15.00
2018-11-07T15:00:10.795Z,15.00
2018-11-07T15:02:40.359Z,15.00
2018-11-07T15:05:10.890Z,14.90
2018-11-07T15:07:40.367Z,14.90
2018-11-07T15:10:10.459Z,14.80
2018-11-07T15:12:39.506Z,14.80
2018-11-07T15:15:10.617Z,14.80
2018-11-07T15:17:39.671Z,14.70
2018-11-07T15:20:09.798Z,14.70
2018-11-07T15:22:38.908Z,14.70
2018-11-07T15:25:08.999Z,14.70
2018-11-07T15:27:37.884Z,14.70
2018-11-07T15:30:08.539Z,14.70
2018-11-07T15:32:37.504Z,14.70
2018-11-07T15:35:06.906Z,14.70
2018-11-07T15:37:36.126Z,14.60
2018-11-07T15:40:06.024Z,14.50
2018-11-07T15:42:34.706Z,14.40
2018-11-07T15:45:03.373Z,14.20
2018-11-07T15:47:32.061Z,14.00
2018-11-07T15:50:06.026Z,13.90
2018-11-07T15:52:34.765Z,13.80
2018-11-07T15:55:03.390Z,13.70
2018-11-07T15:57:32.016Z,13.50
2018-11-07T16:00:00.840Z,13.40
2018-11-07T16:02:29.521Z,13.30
2018-11-07T16:04:59.202Z,13.10
2018-11-07T16:07:28.126Z,13.00
2018-11-07T16:09:56.952Z,12.90
2018-11-07T16:12:25.697Z,12.80
2018-11-07T16:14:54.342Z,12.70
2018-11-07T16:17:22.993Z,12.70
2018-11-07T16:19:51.590Z,12.60
2018-11-07T16:22:20.165Z,12.50
2018-11-07T16:24:48.758Z,12.50
2018-11-07T16:27:17.374Z,12.40
2018-11-07T16:29:46.130Z,12.30
2018-11-07T16:32:14.802Z,12.20
2018-11-07T16:34:44.147Z,12.20
2018-11-07T16:37:12.913Z,12.20
2018-11-07T16:39:41.781Z,12.10
2018-11-07T16:42:11.567Z,12.10
2018-11-07T16:44:40.435Z,12.00
2018-11-07T16:47:09.395Z,12.10
2018-11-07T16:49:38.367Z,12.00
2018-11-07T16:52:07.424Z,12.00
2018-11-07T16:54:37.153Z,12.00
2018-11-07T16:57:06.226Z,12.00
2018-11-07T16:59:35.343Z,12.00
2018-11-07T17:02:04.390Z,12.00
2018-11-07T17:04:32.982Z,12.00
2018-11-07T17:07:01.832Z,12.00
2018-11-07T17:09:30.510Z,12.00
2018-11-07T17:11:59.321Z,12.00
2018-11-07T17:14:28.232Z,12.00
2018-11-07T17:16:57.412Z,12.10
2018-11-07T17:19:26.248Z,12.10
2018-11-07T17:21:54.925Z,12.10
2018-11-07T17:24:23.707Z,12.10
2018-11-07T17:26:52.441Z,12.10
2018-11-07T17:29:21.470Z,12.10
2018-11-07T17:31:50.199Z,12.10
2018-11-07T17:34:18.788Z,12.10
2018-11-07T17:36:47.376Z,12.20
2018-11-07T17:39:15.967Z,12.20
2018-11-07T17:41:44.635Z,12.20
2018-11-07T17:44:13.373Z,12.20
2018-11-07T17:46:42.177Z,12.20
2018-11-07T17:49:11.032Z,12.20
2018-11-07T17:51:39.966Z,12.20
2018-11-07T17:54:08.674Z,12.30
2018-11-07T17:56:37.886Z,12.30
2018-11-07T17:59:07.205Z,12.50
2018-11-07T18:01:36.184Z,12.40
2018-11-07T18:04:05.339Z,12.40
2018-11-07T18:06:34.043Z,12.50
2018-11-07T18:09:02.671Z,12.40
2018-11-07T18:11:31.282Z,12.50
2018-11-07T18:13:59.909Z,12.50
2018-11-07T18:16:28.648Z,12.40
2018-11-07T18:18:57.287Z,12.60
2018-11-07T18:21:25.992Z,12.60
2018-11-07T18:23:54.602Z,12.80
2018-11-07T18:26:23.376Z,12.80
2018-11-07T18:28:51.967Z,12.80
2018-11-07T18:31:20.601Z,12.80
2018-11-07T18:33:49.236Z,12.70
2018-11-07T18:36:17.846Z,12.70
2018-11-07T18:38:46.631Z,12.80
2018-11-07T18:41:15.261Z,12.80
2018-11-07T18:43:44.215Z,12.70
2018-11-07T18:46:12.841Z,12.80
2018-11-07T18:48:41.617Z,12.80
2018-11-07T18:51:10.276Z,12.80
2018-11-07T18:53:39.103Z,12.80
2018-11-07T18:56:07.927Z,12.90
2018-11-07T18:58:36.767Z,12.90
2018-11-07T19:01:05.918Z,12.90
2018-11-07T19:03:34.718Z,12.90
2018-11-07T19:06:03.397Z,12.90
2018-11-07T19:08:32.015Z,12.90
2018-11-07T19:11:00.607Z,12.90
2018-11-07T19:13:29.263Z,12.90
2018-11-07T19:15:57.928Z,12.90
2018-11-07T19:18:26.577Z,12.90
2018-11-07T19:20:55.250Z,12.90
2018-11-07T19:23:23.878Z,12.90
2018-11-07T19:25:52.547Z,12.90
2018-11-07T19:28:21.135Z,12.90
2018-11-07T19:30:49.737Z,12.80
2018-11-07T19:33:18.318Z,12.80
2018-11-07T19:35:46.925Z,12.80
2018-11-07T19:38:15.512Z,12.80
2018-11-07T19:40:44.142Z,12.70
2018-11-07T19:43:12.802Z,12.70
2018-11-07T19:45:41.576Z,12.70
2018-11-07T19:48:10.431Z,12.60
2018-11-07T19:50:39.208Z,12.50
2018-11-07T19:53:08.184Z,12.50
2018-11-07T19:55:37.019Z,12.50
2018-11-07T19:58:06.386Z,12.50
2018-11-07T20:00:35.434Z,12.40
2018-11-07T20:03:04.163Z,12.40
2018-11-07T20:05:32.751Z,12.50
2018-11-07T20:08:01.345Z,12.50
2018-11-07T20:10:30.017Z,12.50
2018-11-07T20:12:58.577Z,12.50
2018-11-07T20:15:27.398Z,12.50
2018-11-07T20:17:56.103Z,12.50
2018-11-07T20:20:24.706Z,12.40
2018-11-07T20:22:57.864Z,12.40
2018-11-07T20:25:26.705Z,12.40
2018-11-07T20:27:55.378Z,12.50
2018-11-07T20:30:24.082Z,12.50
2018-11-07T20:32:52.683Z,12.50
2018-11-07T20:35:21.761Z,12.50
2018-11-07T20:37:50.330Z,12.50
2018-11-07T20:40:20.231Z,12.50
2018-11-07T20:42:49.014Z,12.50
2018-11-07T20:45:18.045Z,12.50
2018-11-07T20:47:46.732Z,12.60
2018-11-07T20:50:16.967Z,12.60
2018-11-07T20:52:46.057Z,12.60
2018-11-07T20:55:15.171Z,12.60
2018-11-07T20:57:43.925Z,12.60
2018-11-07T21:00:15.849Z,12.70
2018-11-07T21:02:45.058Z,12.70
2018-11-07T21:05:14.087Z,12.60
2018-11-07T21:07:43.206Z,12.60
2018-11-07T21:10:15.050Z,12.60
2018-11-07T21:12:44.246Z,12.60
2018-11-07T21:15:14.263Z,12.50
2018-11-07T21:17:43.385Z,12.50
2018-11-07T21:20:12.274Z,12.50
2018-11-07T21:22:41.743Z,12.50
2018-11-07T21:25:10.815Z,12.40
2018-11-07T21:27:40.091Z,12.40
2018-11-07T21:30:10.627Z,12.30
2018-11-07T21:32:39.841Z,12.40
2018-11-07T21:35:08.851Z,12.40
2018-11-07T21:37:37.998Z,12.40
2018-11-07T21:40:09.078Z,12.40
2018-11-07T21:42:37.999Z,12.40
2018-11-07T21:45:08.973Z,12.40
2018-11-07T21:47:38.574Z,12.50
2018-11-07T21:50:08.983Z,12.40
2018-11-07T21:52:38.129Z,12.40
2018-11-07T21:55:07.408Z,12.50
2018-11-07T21:57:37.363Z,12.40
2018-11-07T22:00:09.853Z,12.40
2018-11-07T22:02:39.055Z,12.30
2018-11-07T22:05:08.605Z,12.30
2018-11-07T22:07:37.573Z,12.30
2018-11-07T22:10:07.234Z,12.30
2018-11-07T22:12:36.141Z,12.30
2018-11-07T22:15:05.456Z,12.30
2018-11-07T22:17:34.527Z,12.30
2018-11-07T22:20:03.201Z,12.30
2018-11-07T22:22:31.835Z,12.30
2018-11-07T22:25:00.479Z,12.30
2018-11-07T22:27:29.270Z,12.30
2018-11-07T22:29:57.915Z,12.20
2018-11-07T22:32:26.668Z,12.30
2018-11-07T22:34:55.322Z,12.30
2018-11-07T22:37:23.931Z,12.30
2018-11-07T22:39:52.512Z,12.30
2018-11-07T22:42:21.103Z,12.30
2018-11-07T22:44:49.674Z,12.30
2018-11-07T22:47:18.270Z,12.30
2018-11-07T22:49:46.843Z,12.30
2018-11-07T22:52:15.437Z,12.20
2018-11-07T22:54:44.172Z,12.20
2018-11-07T22:57:12.900Z,12.30
2018-11-07T22:59:41.787Z,12.30
2018-11-07T23:02:10.635Z,12.20
2018-11-07T23:04:39.442Z,12.20
2018-11-07T23:07:08.220Z,12.20
2018-11-07T23:09:36.908Z,12.20
2018-11-07T23:12:06.319Z,12.20
2018-11-07T23:14:35.211Z,12.20
2018-11-07T23:17:03.874Z,12.20
2018-11-07T23:19:32.564Z,12.10
2018-11-07T23:22:01.120Z,12.10
2018-11-07T23:24:29.881Z,12.10
2018-11-07T23:26:58.849Z,12.10
2018-11-07T23:29:27.693Z,12.10
2018-11-07T23:31:56.448Z,11.90
2018-11-07T23:34:25.195Z,11.90
2018-11-07T23:36:53.758Z,11.80
2018-11-07T23:39:22.356Z,11.80
2018-11-07T23:41:50.928Z,11.80
2018-11-07T23:44:19.536Z,11.80
2018-11-07T23:46:48.114Z,11.80
2018-11-07T23:49:16.731Z,11.70
2018-11-07T23:51:50.189Z,11.70
2018-11-07T23:54:20.630Z,11.70
2018-11-07T23:56:49.718Z,11.80
2018-11-07T23:59:18.644Z,11.70
